sensor_id;sensor_type;location;lat;lon;timestamp;pressure;altitude;pressure_sealevel;temperature;humidity
56052;BME280;41919;42.648;23.384;2023-04-21T00:00:54;94183.50;;;11.04;72.11
56052;BME280;41919;42.648;23.384;2023-04-21T00:03:20;94119.09;;;10.66;71.89
56052;BME280;41919;42.648;23.384;2023-04-21T00:05:48;94175.72;;;10.97;71.83
56052;BME280;41919;42.648;23.384;2023-04-21T00:08:15;94169.09;;;10.94;72.48
56052;BME280;41919;42.648;23.384;2023-04-21T00:10:42;94112.31;;;10.58;73.05
56052;BME280;41919;42.648;23.384;2023-04-21T00:13:08;94149.13;;;10.82;73.17
56052;BME280;41919;42.648;23.384;2023-04-21T00:15:33;94158.38;;;10.77;73.93
56052;BME280;41919;42.648;23.384;2023-04-21T00:17:58;94125.34;;;10.65;73.98
56052;BME280;41919;42.648;23.384;2023-04-21T00:20:24;94107.78;;;10.47;74.04
56052;BME280;41919;42.648;23.384;2023-04-21T00:22:54;94089.84;;;10.32;74.25
56052;BME280;41919;42.648;23.384;2023-04-21T00:25:20;94098.84;;;10.36;74.19
56052;BME280;41919;42.648;23.384;2023-04-21T00:27:46;94153.63;;;10.68;74.78
56052;BME280;41919;42.648;23.384;2023-04-21T00:30:11;94161.75;;;10.59;75.30
56052;BME280;41919;42.648;23.384;2023-04-21T00:32:37;94165.41;;;10.58;75.91
56052;BME280;41919;42.648;23.384;2023-04-21T00:35:02;94142.66;;;10.34;76.28
56052;BME280;41919;42.648;23.384;2023-04-21T00:37:28;94163.50;;;10.40;77.51
56052;BME280;41919;42.648;23.384;2023-04-21T00:39:54;94096.91;;;9.93;78.34
56052;BME280;41919;42.648;23.384;2023-04-21T00:42:19;94114.50;;;10.04;79.00
56052;BME280;41919;42.648;23.384;2023-04-21T00:44:45;94104.09;;;9.97;79.53
56052;BME280;41919;42.648;23.384;2023-04-21T00:47:10;94158.75;;;10.31;79.71
56052;BME280;41919;42.648;23.384;2023-04-21T00:49:36;94153.13;;;10.27;79.82
56052;BME280;41919;42.648;23.384;2023-04-21T00:52:03;94166.16;;;10.27;80.53
56052;BME280;41919;42.648;23.384;2023-04-21T00:54:29;94110.97;;;9.92;80.63
56052;BME280;41919;42.648;23.384;2023-04-21T00:56:55;94165.78;;;10.24;81.21
56052;BME280;41919;42.648;23.384;2023-04-21T00:59:24;94165.19;;;10.21;81.37
56052;BME280;41919;42.648;23.384;2023-04-21T01:01:49;94102.38;;;9.85;83.05
56052;BME280;41919;42.648;23.384;2023-04-21T01:04:16;94162.44;;;10.16;84.68
56052;BME280;41919;42.648;23.384;2023-04-21T01:06:42;94099.06;;;9.64;85.13
56052;BME280;41919;42.648;23.384;2023-04-21T01:09:07;94097.28;;;9.58;86.01
56052;BME280;41919;42.648;23.384;2023-04-21T01:11:33;94094.50;;;9.53;86.40
56052;BME280;41919;42.648;23.384;2023-04-21T01:13:58;94104.94;;;9.53;87.92
56052;BME280;41919;42.648;23.384;2023-04-21T01:16:24;94103.84;;;9.22;88.14
56052;BME280;41919;42.648;23.384;2023-04-21T01:18:51;94119.47;;;9.35;86.73
56052;BME280;41919;42.648;23.384;2023-04-21T01:21:18;94108.13;;;9.10;86.92
56052;BME280;41919;42.648;23.384;2023-04-21T01:23:43;94083.75;;;8.77;87.81
56052;BME280;41919;42.648;23.384;2023-04-21T01:26:09;94158.44;;;9.10;89.06
56052;BME280;41919;42.648;23.384;2023-04-21T01:28:35;94156.47;;;8.86;92.08
56052;BME280;41919;42.648;23.384;2023-04-21T01:31:01;94148.88;;;8.84;92.67
56052;BME280;41919;42.648;23.384;2023-04-21T01:33:27;94106.81;;;8.60;91.97
56052;BME280;41919;42.648;23.384;2023-04-21T01:35:53;94165.69;;;9.01;91.66
56052;BME280;41919;42.648;23.384;2023-04-21T01:38:20;94100.78;;;8.67;90.37
56052;BME280;41919;42.648;23.384;2023-04-21T01:40:51;94153.25;;;9.03;89.41
56052;BME280;41919;42.648;23.384;2023-04-21T01:43:20;94161.25;;;9.09;89.96
56052;BME280;41919;42.648;23.384;2023-04-21T01:45:46;94157.44;;;9.11;91.82
56052;BME280;41919;42.648;23.384;2023-04-21T01:48:12;94078.56;;;8.71;92.80
56052;BME280;41919;42.648;23.384;2023-04-21T01:50:37;94067.53;;;8.62;92.71
56052;BME280;41919;42.648;23.384;2023-04-21T01:53:02;94089.56;;;8.73;92.30
56052;BME280;41919;42.648;23.384;2023-04-21T01:55:28;94104.56;;;8.77;92.19
56052;BME280;41919;42.648;23.384;2023-04-21T01:57:54;94086.75;;;8.68;91.94
56052;BME280;41919;42.648;23.384;2023-04-21T02:00:22;94096.38;;;8.80;91.49
56052;BME280;41919;42.648;23.384;2023-04-21T02:02:47;94029.72;;;8.46;88.72
56052;BME280;41919;42.648;23.384;2023-04-21T02:05:13;94128.78;;;9.11;87.41
56052;BME280;41919;42.648;23.384;2023-04-21T02:07:39;94082.72;;;8.85;87.01
56052;BME280;41919;42.648;23.384;2023-04-21T02:10:04;94141.78;;;9.25;86.01
56052;BME280;41919;42.648;23.384;2023-04-21T02:12:30;94079.09;;;8.93;85.71
56052;BME280;41919;42.648;23.384;2023-04-21T02:14:55;94129.88;;;9.35;84.24
56052;BME280;41919;42.648;23.384;2023-04-21T02:17:21;94151.28;;;9.51;83.17
56052;BME280;41919;42.648;23.384;2023-04-21T02:19:47;94143.47;;;9.51;82.60
56052;BME280;41919;42.648;23.384;2023-04-21T02:22:12;94131.44;;;9.50;82.01
56052;BME280;41919;42.648;23.384;2023-04-21T02:24:39;94064.59;;;9.10;81.06
56052;BME280;41919;42.648;23.384;2023-04-21T02:27:04;94139.81;;;9.65;80.31
56052;BME280;41919;42.648;23.384;2023-04-21T02:29:30;94139.03;;;9.65;78.87
56052;BME280;41919;42.648;23.384;2023-04-21T02:31:56;94143.34;;;9.77;78.07
56052;BME280;41919;42.648;23.384;2023-04-21T02:34:21;94134.94;;;9.75;77.38
56052;BME280;41919;42.648;23.384;2023-04-21T02:36:47;94073.28;;;9.42;76.99
56052;BME280;41919;42.648;23.384;2023-04-21T02:39:12;94135.91;;;9.81;77.32
56052;BME280;41919;42.648;23.384;2023-04-21T02:41:40;94074.13;;;9.36;76.88
56052;BME280;41919;42.648;23.384;2023-04-21T02:44:06;94144.13;;;9.85;76.54
56052;BME280;41919;42.648;23.384;2023-04-21T02:46:31;94029.06;;;9.22;75.75
56052;BME280;41919;42.648;23.384;2023-04-21T02:48:57;94141.06;;;9.94;75.58
56052;BME280;41919;42.648;23.384;2023-04-21T02:51:22;94094.44;;;9.66;75.43
56052;BME280;41919;42.648;23.384;2023-04-21T02:53:47;94130.81;;;9.93;74.88
56052;BME280;41919;42.648;23.384;2023-04-21T02:56:13;94138.44;;;9.94;74.67
56052;BME280;41919;42.648;23.384;2023-04-21T02:58:38;94084.31;;;9.45;78.20
56052;BME280;41919;42.648;23.384;2023-04-21T03:01:04;94125.16;;;9.64;79.91
56052;BME280;41919;42.648;23.384;2023-04-21T03:03:30;94134.16;;;9.75;80.20
56052;BME280;41919;42.648;23.384;2023-04-21T03:06:00;94145.31;;;9.89;79.83
56052;BME280;41919;42.648;23.384;2023-04-21T03:08:26;94129.53;;;9.70;80.90
56052;BME280;41919;42.648;23.384;2023-04-21T03:10:51;94144.50;;;9.50;81.39
56052;BME280;41919;42.648;23.384;2023-04-21T03:13:17;94139.06;;;9.51;81.79
56052;BME280;41919;42.648;23.384;2023-04-21T03:15:43;94150.25;;;9.65;81.43
56052;BME280;41919;42.648;23.384;2023-04-21T03:18:09;94150.00;;;9.73;81.01
56052;BME280;41919;42.648;23.384;2023-04-21T03:20:35;94150.41;;;9.70;80.55
56052;BME280;41919;42.648;23.384;2023-04-21T03:23:00;94151.78;;;9.79;80.99
56052;BME280;41919;42.648;23.384;2023-04-21T03:25:25;94153.38;;;9.80;80.40
56052;BME280;41919;42.648;23.384;2023-04-21T03:27:54;94145.81;;;9.66;81.10
56052;BME280;41919;42.648;23.384;2023-04-21T03:30:21;94101.03;;;9.30;81.21
56052;BME280;41919;42.648;23.384;2023-04-21T03:32:47;94160.84;;;9.12;83.73
56052;BME280;41919;42.648;23.384;2023-04-21T03:35:13;94087.56;;;8.28;86.63
56052;BME280;41919;42.648;23.384;2023-04-21T03:37:38;94071.75;;;8.03;87.77
56052;BME280;41919;42.648;23.384;2023-04-21T03:40:04;94152.25;;;8.31;89.52
56052;BME280;41919;42.648;23.384;2023-04-21T03:42:35;94168.13;;;8.63;88.81
56052;BME280;41919;42.648;23.384;2023-04-21T03:45:02;94168.72;;;8.65;88.67
56052;BME280;41919;42.648;23.384;2023-04-21T03:47:28;94098.78;;;8.15;88.88
56052;BME280;41919;42.648;23.384;2023-04-21T03:49:53;94050.72;;;7.91;88.97
56052;BME280;41919;42.648;23.384;2023-04-21T03:52:19;94169.31;;;8.87;88.24
56052;BME280;41919;42.648;23.384;2023-04-21T03:54:44;94113.63;;;8.55;87.98
56052;BME280;41919;42.648;23.384;2023-04-21T03:57:09;94110.81;;;8.56;87.50
56052;BME280;41919;42.648;23.384;2023-04-21T03:59:35;94106.41;;;8.63;86.31
56052;BME280;41919;42.648;23.384;2023-04-21T04:02:00;94119.00;;;8.80;85.77
56052;BME280;41919;42.648;23.384;2023-04-21T04:04:26;94174.88;;;9.17;85.18
56052;BME280;41919;42.648;23.384;2023-04-21T04:06:51;94118.78;;;8.95;84.07
56052;BME280;41919;42.648;23.384;2023-04-21T04:09:17;94124.00;;;9.01;83.33
56052;BME280;41919;42.648;23.384;2023-04-21T04:11:42;94112.34;;;9.04;81.93
56052;BME280;41919;42.648;23.384;2023-04-21T04:14:07;94121.31;;;9.28;82.19
56052;BME280;41919;42.648;23.384;2023-04-21T04:16:34;94121.19;;;9.55;81.35
56052;BME280;41919;42.648;23.384;2023-04-21T04:19:00;94141.72;;;9.83;79.70
56052;BME280;41919;42.648;23.384;2023-04-21T04:21:25;94189.97;;;10.51;78.83
56052;BME280;41919;42.648;23.384;2023-04-21T04:23:51;94125.97;;;10.35;77.19
56052;BME280;41919;42.648;23.384;2023-04-21T04:26:17;94181.16;;;10.95;75.55
56052;BME280;41919;42.648;23.384;2023-04-21T04:28:43;94208.16;;;11.33;73.34
56052;BME280;41919;42.648;23.384;2023-04-21T04:31:09;94179.19;;;11.34;71.82
56052;BME280;41919;42.648;23.384;2023-04-21T04:33:34;94196.09;;;11.50;70.42
56052;BME280;41919;42.648;23.384;2023-04-21T04:36:00;94208.47;;;11.80;69.42
56052;BME280;41919;42.648;23.384;2023-04-21T04:38:26;94211.31;;;11.78;68.54
56052;BME280;41919;42.648;23.384;2023-04-21T04:40:55;94197.91;;;11.87;67.99
56052;BME280;41919;42.648;23.384;2023-04-21T04:43:25;94171.88;;;11.73;67.71
56052;BME280;41919;42.648;23.384;2023-04-21T04:45:51;94221.47;;;11.87;68.23
56052;BME280;41919;42.648;23.384;2023-04-21T04:48:16;94153.88;;;11.65;68.54
56052;BME280;41919;42.648;23.384;2023-04-21T04:50:42;94150.47;;;11.46;68.73
56052;BME280;41919;42.648;23.384;2023-04-21T04:53:07;94223.81;;;11.76;69.74
56052;BME280;41919;42.648;23.384;2023-04-21T04:55:32;94169.34;;;11.11;71.22
56052;BME280;41919;42.648;23.384;2023-04-21T04:57:58;94222.81;;;11.59;70.87
56052;BME280;41919;42.648;23.384;2023-04-21T05:00:24;94206.28;;;11.40;70.85
56052;BME280;41919;42.648;23.384;2023-04-21T05:02:49;94155.94;;;11.26;75.22
56052;BME280;41919;42.648;23.384;2023-04-21T05:05:15;94157.38;;;11.41;73.91
56052;BME280;41919;42.648;23.384;2023-04-21T05:07:40;94208.97;;;11.89;72.53
56052;BME280;41919;42.648;23.384;2023-04-21T05:10:06;94217.50;;;12.03;72.26
56052;BME280;41919;42.648;23.384;2023-04-21T05:12:31;94207.31;;;12.13;70.46
56052;BME280;41919;42.648;23.384;2023-04-21T05:14:57;94220.31;;;12.50;68.55
56052;BME280;41919;42.648;23.384;2023-04-21T05:17:22;94173.38;;;12.48;68.39
56052;BME280;41919;42.648;23.384;2023-04-21T05:19:47;94227.63;;;13.25;67.01
56052;BME280;41919;42.648;23.384;2023-04-21T05:22:13;94193.03;;;13.28;65.44
56052;BME280;41919;42.648;23.384;2023-04-21T05:24:40;94210.50;;;13.70;64.07
56052;BME280;41919;42.648;23.384;2023-04-21T05:27:05;94218.50;;;14.16;62.10
56052;BME280;41919;42.648;23.384;2023-04-21T05:29:31;94225.41;;;14.34;60.89
56052;BME280;41919;42.648;23.384;2023-04-21T05:31:58;94206.25;;;14.21;60.46
56052;BME280;41919;42.648;23.384;2023-04-21T05:34:24;94219.53;;;14.43;59.73
56052;BME280;41919;42.648;23.384;2023-04-21T05:36:49;94221.50;;;14.65;59.08
56052;BME280;41919;42.648;23.384;2023-04-21T05:39:16;94186.84;;;14.39;59.10
56052;BME280;41919;42.648;23.384;2023-04-21T05:41:42;94226.94;;;15.09;58.38
56052;BME280;41919;42.648;23.384;2023-04-21T05:44:07;94170.84;;;15.03;57.07
56052;BME280;41919;42.648;23.384;2023-04-21T05:46:33;94220.59;;;15.78;56.04
56052;BME280;41919;42.648;23.384;2023-04-21T05:48:59;94172.75;;;15.86;53.72
56052;BME280;41919;42.648;23.384;2023-04-21T05:51:26;94232.59;;;16.57;52.22
56052;BME280;41919;42.648;23.384;2023-04-21T05:53:52;94220.94;;;17.07;51.07
56052;BME280;41919;42.648;23.384;2023-04-21T05:56:17;94160.06;;;17.24;49.64
56052;BME280;41919;42.648;23.384;2023-04-21T05:58:43;94126.91;;;17.49;47.75
56052;BME280;41919;42.648;23.384;2023-04-21T06:01:08;94148.31;;;18.15;45.17
56052;BME280;41919;42.648;23.384;2023-04-21T06:03:34;94190.47;;;18.53;45.06
56052;BME280;41919;42.648;23.384;2023-04-21T06:06:00;94189.47;;;18.79;44.22
56052;BME280;41919;42.648;23.384;2023-04-21T06:08:26;94173.56;;;18.79;42.52
56052;BME280;41919;42.648;23.384;2023-04-21T06:10:51;94200.59;;;19.23;42.14
56052;BME280;41919;42.648;23.384;2023-04-21T06:13:17;94137.53;;;19.25;40.70
56052;BME280;41919;42.648;23.384;2023-04-21T06:15:42;94178.25;;;19.85;40.84
56052;BME280;41919;42.648;23.384;2023-04-21T06:18:08;94186.72;;;20.47;38.92
56052;BME280;41919;42.648;23.384;2023-04-21T06:20:33;94149.81;;;20.90;37.64
56052;BME280;41919;42.648;23.384;2023-04-21T06:22:59;94199.53;;;21.19;37.40
56052;BME280;41919;42.648;23.384;2023-04-21T06:25:24;94148.66;;;21.02;37.08
56052;BME280;41919;42.648;23.384;2023-04-21T06:27:49;94185.25;;;21.44;36.30
56052;BME280;41919;42.648;23.384;2023-04-21T06:30:15;94202.72;;;22.04;35.79
56052;BME280;41919;42.648;23.384;2023-04-21T06:32:42;94185.03;;;22.56;33.89
56052;BME280;41919;42.648;23.384;2023-04-21T06:35:07;94171.00;;;22.69;33.58
56052;BME280;41919;42.648;23.384;2023-04-21T06:37:33;94189.69;;;23.35;32.94
56052;BME280;41919;42.648;23.384;2023-04-21T06:39:59;94181.16;;;24.35;31.57
56052;BME280;41919;42.648;23.384;2023-04-21T06:42:24;94172.53;;;25.25;29.63
56052;BME280;41919;42.648;23.384;2023-04-21T06:44:49;94190.47;;;25.56;28.88
56052;BME280;41919;42.648;23.384;2023-04-21T06:47:15;94184.69;;;26.51;27.99
56052;BME280;41919;42.648;23.384;2023-04-21T06:49:41;94186.31;;;26.96;26.57
56052;BME280;41919;42.648;23.384;2023-04-21T06:52:07;94185.97;;;27.15;27.08
56052;BME280;41919;42.648;23.384;2023-04-21T06:54:32;94135.22;;;27.01;26.61
56052;BME280;41919;42.648;23.384;2023-04-21T06:56:58;94185.97;;;27.41;25.42
56052;BME280;41919;42.648;23.384;2023-04-21T06:59:23;94128.59;;;26.55;26.62
56052;BME280;41919;42.648;23.384;2023-04-21T07:01:48;94164.78;;;27.57;25.60
56052;BME280;41919;42.648;23.384;2023-04-21T07:04:17;94169.91;;;26.97;26.73
56052;BME280;41919;42.648;23.384;2023-04-21T07:06:42;94121.03;;;26.83;26.40
56052;BME280;41919;42.648;23.384;2023-04-21T07:09:08;94168.03;;;27.89;25.65
56052;BME280;41919;42.648;23.384;2023-04-21T07:11:34;94180.59;;;28.35;24.77
56052;BME280;41919;42.648;23.384;2023-04-21T07:13:59;94118.16;;;27.70;25.29
56052;BME280;41919;42.648;23.384;2023-04-21T07:16:27;94160.00;;;28.40;24.41
56052;BME280;41919;42.648;23.384;2023-04-21T07:18:52;94130.03;;;28.80;24.13
56052;BME280;41919;42.648;23.384;2023-04-21T07:21:17;94159.34;;;29.60;23.13
56052;BME280;41919;42.648;23.384;2023-04-21T07:23:43;94122.50;;;28.73;23.28
56052;BME280;41919;42.648;23.384;2023-04-21T07:26:08;94127.72;;;28.19;24.15
56052;BME280;41919;42.648;23.384;2023-04-21T07:28:34;94180.13;;;27.48;25.23
56052;BME280;41919;42.648;23.384;2023-04-21T07:30:59;94136.75;;;27.37;25.64
56052;BME280;41919;42.648;23.384;2023-04-21T07:33:25;94157.28;;;27.15;26.04
56052;BME280;41919;42.648;23.384;2023-04-21T07:35:50;94173.75;;;25.81;27.74
56052;BME280;41919;42.648;23.384;2023-04-21T07:38:16;94182.84;;;25.40;28.56
56052;BME280;41919;42.648;23.384;2023-04-21T07:40:41;94132.56;;;23.69;30.63
56052;BME280;41919;42.648;23.384;2023-04-21T07:43:07;94173.31;;;24.16;30.75
56052;BME280;41919;42.648;23.384;2023-04-21T07:45:32;94135.31;;;23.78;31.22
56052;BME280;41919;42.648;23.384;2023-04-21T07:47:57;94172.00;;;24.78;30.21
56052;BME280;41919;42.648;23.384;2023-04-21T07:50:23;94124.88;;;24.45;30.20
56052;BME280;41919;42.648;23.384;2023-04-21T07:52:49;94159.50;;;24.64;29.69
56052;BME280;41919;42.648;23.384;2023-04-21T07:55:14;94176.94;;;24.84;29.15
56052;BME280;41919;42.648;23.384;2023-04-21T07:57:40;94141.19;;;24.58;30.21
56052;BME280;41919;42.648;23.384;2023-04-21T08:00:06;94152.66;;;23.94;30.78
56052;BME280;41919;42.648;23.384;2023-04-21T08:02:32;94176.38;;;23.35;31.51
56052;BME280;41919;42.648;23.384;2023-04-21T08:04:57;94162.00;;;23.03;32.12
56052;BME280;41919;42.648;23.384;2023-04-21T08:07:23;94182.06;;;23.15;32.13
56052;BME280;41919;42.648;23.384;2023-04-21T08:09:49;94127.81;;;22.35;33.30
56052;BME280;41919;42.648;23.384;2023-04-21T08:12:15;94129.44;;;21.44;34.09
56052;BME280;41919;42.648;23.384;2023-04-21T08:14:40;94116.59;;;20.93;35.04
56052;BME280;41919;42.648;23.384;2023-04-21T08:17:05;94187.09;;;21.73;34.99
56052;BME280;41919;42.648;23.384;2023-04-21T08:19:31;94173.47;;;21.50;34.48
56052;BME280;41919;42.648;23.384;2023-04-21T08:21:56;94180.53;;;21.65;35.11
56052;BME280;41919;42.648;23.384;2023-04-21T08:24:23;94177.19;;;21.79;34.69
56052;BME280;41919;42.648;23.384;2023-04-21T08:26:49;94177.63;;;21.62;34.67
56052;BME280;41919;42.648;23.384;2023-04-21T08:29:14;94178.19;;;21.59;35.42
56052;BME280;41919;42.648;23.384;2023-04-21T08:31:40;94123.31;;;21.68;34.46
56052;BME280;41919;42.648;23.384;2023-04-21T08:34:06;94163.22;;;22.11;34.44
56052;BME280;41919;42.648;23.384;2023-04-21T08:36:31;94174.63;;;21.92;34.75
56052;BME280;41919;42.648;23.384;2023-04-21T08:38:57;94162.91;;;21.93;34.83
56052;BME280;41919;42.648;23.384;2023-04-21T08:41:24;94114.69;;;22.19;34.24
56052;BME280;41919;42.648;23.384;2023-04-21T08:43:49;94176.88;;;22.66;33.26
56052;BME280;41919;42.648;23.384;2023-04-21T08:46:15;94171.38;;;22.44;32.51
56052;BME280;41919;42.648;23.384;2023-04-21T08:48:40;94177.06;;;22.13;33.38
56052;BME280;41919;42.648;23.384;2023-04-21T08:51:07;94117.03;;;21.59;33.49
56052;BME280;41919;42.648;23.384;2023-04-21T08:53:36;94156.38;;;22.05;33.78
56052;BME280;41919;42.648;23.384;2023-04-21T08:56:03;94160.16;;;21.56;34.73
56052;BME280;41919;42.648;23.384;2023-04-21T08:58:28;94164.50;;;21.46;34.80
56052;BME280;41919;42.648;23.384;2023-04-21T09:00:54;94160.66;;;21.58;34.98
56052;BME280;41919;42.648;23.384;2023-04-21T09:03:24;94092.31;;;21.05;34.72
56052;BME280;41919;42.648;23.384;2023-04-21T09:06:00;94157.19;;;21.57;35.03
56052;BME280;41919;42.648;23.384;2023-04-21T09:08:27;94148.63;;;22.08;35.14
56052;BME280;41919;42.648;23.384;2023-04-21T09:10:55;94146.75;;;22.09;34.79
56052;BME280;41919;42.648;23.384;2023-04-21T09:13:28;94142.56;;;22.03;34.80
56052;BME280;41919;42.648;23.384;2023-04-21T09:15:54;94134.72;;;22.36;34.08
56052;BME280;41919;42.648;23.384;2023-04-21T09:18:24;94134.53;;;22.84;33.08
56052;BME280;41919;42.648;23.384;2023-04-21T09:23:49;94124.75;;;22.22;34.52
56052;BME280;41919;42.648;23.384;2023-04-21T09:26:16;94118.72;;;21.49;33.87
56052;BME280;41919;42.648;23.384;2023-04-21T09:28:46;94137.78;;;21.57;34.41
56052;BME280;41919;42.648;23.384;2023-04-21T09:31:13;94136.84;;;21.13;35.13
56052;BME280;41919;42.648;23.384;2023-04-21T09:33:47;94092.16;;;20.62;35.59
56052;BME280;41919;42.648;23.384;2023-04-21T09:36:20;94073.84;;;20.55;36.20
56052;BME280;41919;42.648;23.384;2023-04-21T09:39:04;94089.50;;;20.62;36.64
56052;BME280;41919;42.648;23.384;2023-04-21T09:41:30;94099.13;;;20.47;36.53
56052;BME280;41919;42.648;23.384;2023-04-21T09:43:56;94033.88;;;20.02;36.44
56052;BME280;41919;42.648;23.384;2023-04-21T09:46:28;94075.09;;;20.28;35.62
56052;BME280;41919;42.648;23.384;2023-04-21T09:48:54;94109.16;;;20.16;36.55
56052;BME280;41919;42.648;23.384;2023-04-21T09:51:21;94117.94;;;20.51;35.48
56052;BME280;41919;42.648;23.384;2023-04-21T09:53:52;94068.84;;;20.14;35.71
56052;BME280;41919;42.648;23.384;2023-04-21T09:56:20;94117.88;;;20.22;35.59
56052;BME280;41919;42.648;23.384;2023-04-21T09:58:52;94102.03;;;20.46;34.98
56052;BME280;41919;42.648;23.384;2023-04-21T10:01:18;94096.97;;;20.89;36.36
56052;BME280;41919;42.648;23.384;2023-04-21T10:03:46;94100.19;;;20.86;36.69
56052;BME280;41919;42.648;23.384;2023-04-21T10:06:12;94114.22;;;20.91;37.69
56052;BME280;41919;42.648;23.384;2023-04-21T10:08:38;94114.97;;;20.63;36.32
56052;BME280;41919;42.648;23.384;2023-04-21T10:11:05;94066.53;;;20.02;37.89
56052;BME280;41919;42.648;23.384;2023-04-21T10:13:31;94084.53;;;20.05;36.57
56052;BME280;41919;42.648;23.384;2023-04-21T10:16:07;94095.69;;;20.02;36.99
56052;BME280;41919;42.648;23.384;2023-04-21T10:18:38;94094.88;;;20.07;39.80
56052;BME280;41919;42.648;23.384;2023-04-21T10:21:08;94099.13;;;20.08;38.70
56052;BME280;41919;42.648;23.384;2023-04-21T10:24:06;94102.00;;;20.56;36.37
56052;BME280;41919;42.648;23.384;2023-04-21T10:26:34;94031.22;;;20.07;35.76
56052;BME280;41919;42.648;23.384;2023-04-21T10:29:06;94100.69;;;20.14;38.54
56052;BME280;41919;42.648;23.384;2023-04-21T10:39:42;94056.03;;;19.06;40.65
56052;BME280;41919;42.648;23.384;2023-04-21T10:44:40;94048.97;;;19.51;40.93
56052;BME280;41919;42.648;23.384;2023-04-21T10:47:06;94096.56;;;19.92;39.14
56052;BME280;41919;42.648;23.384;2023-04-21T10:49:37;94075.16;;;19.73;39.33
56052;BME280;41919;42.648;23.384;2023-04-21T10:52:05;94099.81;;;19.74;39.40
56052;BME280;41919;42.648;23.384;2023-04-21T10:54:40;94102.44;;;19.79;39.35
56052;BME280;41919;42.648;23.384;2023-04-21T10:57:08;94042.69;;;19.32;40.00
56052;BME280;41919;42.648;23.384;2023-04-21T10:59:34;94081.03;;;19.60;40.09
56052;BME280;41919;42.648;23.384;2023-04-21T11:02:02;94106.06;;;19.93;39.21
56052;BME280;41919;42.648;23.384;2023-04-21T11:04:27;94100.50;;;20.00;38.64
56052;BME280;41919;42.648;23.384;2023-04-21T11:07:09;94101.84;;;19.92;37.21
56052;BME280;41919;42.648;23.384;2023-04-21T11:09:36;94057.94;;;19.66;37.57
56052;BME280;41919;42.648;23.384;2023-04-21T11:12:04;94091.78;;;19.89;37.62
56052;BME280;41919;42.648;23.384;2023-04-21T11:14:32;94089.75;;;19.66;36.86
56052;BME280;41919;42.648;23.384;2023-04-21T11:17:00;94103.00;;;19.61;38.63
56052;BME280;41919;42.648;23.384;2023-04-21T11:19:25;94089.19;;;19.69;36.81
56052;BME280;41919;42.648;23.384;2023-04-21T11:21:54;94098.19;;;19.78;37.74
56052;BME280;41919;42.648;23.384;2023-04-21T11:24:20;94049.56;;;19.43;39.74
56052;BME280;41919;42.648;23.384;2023-04-21T11:26:46;94095.91;;;19.46;40.40
56052;BME280;41919;42.648;23.384;2023-04-21T11:29:11;94052.81;;;19.04;40.91
56052;BME280;41919;42.648;23.384;2023-04-21T11:31:39;94061.31;;;19.06;40.69
56052;BME280;41919;42.648;23.384;2023-04-21T11:34:05;94103.94;;;19.10;41.47
56052;BME280;41919;42.648;23.384;2023-04-21T11:36:32;94098.63;;;19.10;41.89
56052;BME280;41919;42.648;23.384;2023-04-21T11:38:58;94092.47;;;19.40;40.98
56052;BME280;41919;42.648;23.384;2023-04-21T11:41:24;94091.13;;;19.53;40.48
56052;BME280;41919;42.648;23.384;2023-04-21T11:43:50;94028.97;;;19.19;40.42
56052;BME280;41919;42.648;23.384;2023-04-21T11:46:22;94079.94;;;19.61;39.51
56052;BME280;41919;42.648;23.384;2023-04-21T11:49:00;94037.75;;;19.05;40.40
56052;BME280;41919;42.648;23.384;2023-04-21T11:51:37;94034.59;;;18.61;41.81
56052;BME280;41919;42.648;23.384;2023-04-21T11:54:05;94100.00;;;18.97;42.16
56052;BME280;41919;42.648;23.384;2023-04-21T11:56:42;94027.75;;;18.60;42.54
56052;BME280;41919;42.648;23.384;2023-04-21T11:59:12;94097.59;;;19.11;42.19
56052;BME280;41919;42.648;23.384;2023-04-21T12:01:49;94081.97;;;18.78;41.63
56052;BME280;41919;42.648;23.384;2023-04-21T12:04:16;94094.44;;;18.98;40.59
56052;BME280;41919;42.648;23.384;2023-04-21T12:06:42;94046.00;;;18.47;40.36
56052;BME280;41919;42.648;23.384;2023-04-21T12:09:16;94080.66;;;18.55;41.01
56052;BME280;41919;42.648;23.384;2023-04-21T12:11:41;94097.31;;;18.46;40.49
56052;BME280;41919;42.648;23.384;2023-04-21T12:14:07;94087.78;;;18.45;39.65
56052;BME280;41919;42.648;23.384;2023-04-21T12:16:36;94019.81;;;18.19;39.15
56052;BME280;41919;42.648;23.384;2023-04-21T12:19:01;94028.00;;;18.08;39.56
56052;BME280;41919;42.648;23.384;2023-04-21T12:21:27;94041.22;;;18.02;39.82
56052;BME280;41919;42.648;23.384;2023-04-21T12:23:53;94073.00;;;18.33;39.39
56052;BME280;41919;42.648;23.384;2023-04-21T12:26:20;94012.59;;;17.79;38.21
56052;BME280;41919;42.648;23.384;2023-04-21T12:28:46;94032.69;;;17.80;38.34
56052;BME280;41919;42.648;23.384;2023-04-21T12:31:12;94029.84;;;18.07;37.50
56052;BME280;41919;42.648;23.384;2023-04-21T12:33:38;94089.41;;;18.35;38.86
56052;BME280;41919;42.648;23.384;2023-04-21T12:36:04;94092.03;;;18.76;38.03
56052;BME280;41919;42.648;23.384;2023-04-21T12:38:29;94099.72;;;18.93;38.08
56052;BME280;41919;42.648;23.384;2023-04-21T12:40:55;94054.72;;;18.63;37.87
56052;BME280;41919;42.648;23.384;2023-04-21T12:43:20;94087.25;;;18.78;37.85
56052;BME280;41919;42.648;23.384;2023-04-21T12:45:46;94098.94;;;18.83;38.43
56052;BME280;41919;42.648;23.384;2023-04-21T12:48:11;94078.28;;;18.95;38.04
56052;BME280;41919;42.648;23.384;2023-04-21T12:50:37;94028.03;;;18.33;38.41
56052;BME280;41919;42.648;23.384;2023-04-21T12:53:03;94028.25;;;18.37;38.80
56052;BME280;41919;42.648;23.384;2023-04-21T12:55:28;94028.03;;;18.33;38.48
56052;BME280;41919;42.648;23.384;2023-04-21T12:57:53;94082.50;;;18.65;38.78
56052;BME280;41919;42.648;23.384;2023-04-21T13:00:19;94032.75;;;18.16;39.78
56052;BME280;41919;42.648;23.384;2023-04-21T13:02:45;94015.28;;;17.94;39.88